sensor_id;sensor_type;location;lat;lon;timestamp;temperature;humidity
12233;DHT22;6179;51.748;8.728;2023-04-03T00:03:27;3.30;89.20
12233;DHT22;6179;51.748;8.728;2023-04-03T00:09:28;3.30;89.00
12233;DHT22;6179;51.748;8.728;2023-04-03T00:15:28;3.30;89.00
12233;DHT22;6179;51.748;8.728;2023-04-03T00:21:29;3.20;89.80
12233;DHT22;6179;51.748;8.728;2023-04-03T00:27:30;3.10;89.80
12233;DHT22;6179;51.748;8.728;2023-04-03T00:33:31;3.00;89.80
12233;DHT22;6179;51.748;8.728;2023-04-03T00:39:32;2.90;90.20
12233;DHT22;6179;51.748;8.728;2023-04-03T00:45:37;3.00;89.70
12233;DHT22;6179;51.748;8.728;2023-04-03T00:51:39;3.10;89.50
12233;DHT22;6179;51.748;8.728;2023-04-03T00:57:40;3.10;89.20
12233;DHT22;6179;51.748;8.728;2023-04-03T01:03:41;2.90;90.40
12233;DHT22;6179;51.748;8.728;2023-04-03T01:09:42;2.90;90.00
12233;DHT22;6179;51.748;8.728;2023-04-03T01:15:43;2.70;90.60
12233;DHT22;6179;51.748;8.728;2023-04-03T01:21:55;2.70;91.10
12233;DHT22;6179;51.748;8.728;2023-04-03T01:27:58;2.70;90.90
12233;DHT22;6179;51.748;8.728;2023-04-03T01:33:59;2.60;91.20
12233;DHT22;6179;51.748;8.728;2023-04-03T01:40:00;2.50;91.80
12233;DHT22;6179;51.748;8.728;2023-04-03T01:46:01;2.30;91.60
12233;DHT22;6179;51.748;8.728;2023-04-03T01:52:01;2.10;91.50
12233;DHT22;6179;51.748;8.728;2023-04-03T01:58:02;2.10;92.30
12233;DHT22;6179;51.748;8.728;2023-04-03T02:04:03;2.00;92.90
12233;DHT22;6179;51.748;8.728;2023-04-03T02:10:03;1.70;94.10
12233;DHT22;6179;51.748;8.728;2023-04-03T02:16:09;1.70;94.80
12233;DHT22;6179;51.748;8.728;2023-04-03T02:22:10;1.60;94.10
12233;DHT22;6179;51.748;8.728;2023-04-03T02:28:10;1.50;94.60
12233;DHT22;6179;51.748;8.728;2023-04-03T02:34:11;1.40;94.70
12233;DHT22;6179;51.748;8.728;2023-04-03T02:40:12;1.20;95.70
12233;DHT22;6179;51.748;8.728;2023-04-03T02:46:13;1.20;95.60
12233;DHT22;6179;51.748;8.728;2023-04-03T02:52:15;1.10;96.10
12233;DHT22;6179;51.748;8.728;2023-04-03T02:58:16;0.70;96.50
12233;DHT22;6179;51.748;8.728;2023-04-03T03:04:17;0.60;97.70
12233;DHT22;6179;51.748;8.728;2023-04-03T03:10:17;0.50;97.90
12233;DHT22;6179;51.748;8.728;2023-04-03T03:16:18;0.40;98.30
12233;DHT22;6179;51.748;8.728;2023-04-03T03:22:19;0.40;98.30
12233;DHT22;6179;51.748;8.728;2023-04-03T03:28:19;0.60;98.10
12233;DHT22;6179;51.748;8.728;2023-04-03T03:34:20;0.90;96.60
12233;DHT22;6179;51.748;8.728;2023-04-03T03:40:21;0.50;97.50
12233;DHT22;6179;51.748;8.728;2023-04-03T03:46:22;0.10;98.30
12233;DHT22;6179;51.748;8.728;2023-04-03T03:52:22;-0.10;98.30
12233;DHT22;6179;51.748;8.728;2023-04-03T03:58:23;0.00;98.30
12233;DHT22;6179;51.748;8.728;2023-04-03T04:04:24;-0.10;98.30
12233;DHT22;6179;51.748;8.728;2023-04-03T04:10:25;0.10;98.30
12233;DHT22;6179;51.748;8.728;2023-04-03T04:16:25;0.10;98.30
12233;DHT22;6179;51.748;8.728;2023-04-03T04:22:26;0.00;98.30
12233;DHT22;6179;51.748;8.728;2023-04-03T04:28:26;0.20;98.30
12233;DHT22;6179;51.748;8.728;2023-04-03T04:34:27;0.30;98.20
12233;DHT22;6179;51.748;8.728;2023-04-03T04:40:28;0.60;96.30
12233;DHT22;6179;51.748;8.728;2023-04-03T04:46:29;0.30;97.60
12233;DHT22;6179;51.748;8.728;2023-04-03T04:52:29;0.50;96.80
12233;DHT22;6179;51.748;8.728;2023-04-03T04:58:30;0.40;96.20
12233;DHT22;6179;51.748;8.728;2023-04-03T05:04:30;0.80;94.90
12233;DHT22;6179;51.748;8.728;2023-04-03T05:10:31;0.80;94.10
12233;DHT22;6179;51.748;8.728;2023-04-03T05:16:33;0.60;94.30
12233;DHT22;6179;51.748;8.728;2023-04-03T05:22:33;0.40;95.00
12233;DHT22;6179;51.748;8.728;2023-04-03T05:28:34;0.50;95.00
12233;DHT22;6179;51.748;8.728;2023-04-03T05:34:35;0.60;94.90
12233;DHT22;6179;51.748;8.728;2023-04-03T05:40:35;0.70;94.80
12233;DHT22;6179;51.748;8.728;2023-04-03T05:46:36;0.60;95.60
12233;DHT22;6179;51.748;8.728;2023-04-03T05:52:38;0.50;96.30
12233;DHT22;6179;51.748;8.728;2023-04-03T05:58:41;0.30;97.20
12233;DHT22;6179;51.748;8.728;2023-04-03T06:04:42;0.50;97.10
12233;DHT22;6179;51.748;8.728;2023-04-03T06:10:43;0.70;96.60
12233;DHT22;6179;51.748;8.728;2023-04-03T06:16:43;0.60;96.80
12233;DHT22;6179;51.748;8.728;2023-04-03T06:22:45;0.90;95.80
12233;DHT22;6179;51.748;8.728;2023-04-03T06:28:46;0.90;95.40
12233;DHT22;6179;51.748;8.728;2023-04-03T06:34:46;0.90;96.30
12233;DHT22;6179;51.748;8.728;2023-04-03T06:40:47;1.10;94.20
12233;DHT22;6179;51.748;8.728;2023-04-03T06:46:48;1.20;94.00
12233;DHT22;6179;51.748;8.728;2023-04-03T06:52:48;1.20;94.10
12233;DHT22;6179;51.748;8.728;2023-04-03T06:58:49;1.30;94.40
12233;DHT22;6179;51.748;8.728;2023-04-03T07:04:51;1.70;92.90
12233;DHT22;6179;51.748;8.728;2023-04-03T07:10:52;1.90;92.70
12233;DHT22;6179;51.748;8.728;2023-04-03T07:16:53;1.80;91.00
12233;DHT22;6179;51.748;8.728;2023-04-03T07:22:53;2.20;89.50
12233;DHT22;6179;51.748;8.728;2023-04-03T07:28:54;2.60;88.40
12233;DHT22;6179;51.748;8.728;2023-04-03T07:34:55;2.60;88.80
12233;DHT22;6179;51.748;8.728;2023-04-03T07:40:56;3.10;86.70
12233;DHT22;6179;51.748;8.728;2023-04-03T07:46:56;3.40;84.50
12233;DHT22;6179;51.748;8.728;2023-04-03T07:52:57;3.30;84.80
12233;DHT22;6179;51.748;8.728;2023-04-03T07:58:58;3.40;84.40
12233;DHT22;6179;51.748;8.728;2023-04-03T08:04:58;3.30;85.60
12233;DHT22;6179;51.748;8.728;2023-04-03T08:11:01;3.60;81.70
12233;DHT22;6179;51.748;8.728;2023-04-03T08:17:03;4.00;82.10
12233;DHT22;6179;51.748;8.728;2023-04-03T08:23:06;3.90;78.40
12233;DHT22;6179;51.748;8.728;2023-04-03T08:29:06;4.20;76.70
12233;DHT22;6179;51.748;8.728;2023-04-03T08:35:07;4.50;74.60
12233;DHT22;6179;51.748;8.728;2023-04-03T08:41:35;4.60;75.00
12233;DHT22;6179;51.748;8.728;2023-04-03T08:47:45;4.60;73.60
12233;DHT22;6179;51.748;8.728;2023-04-03T08:54:14;4.90;74.50
12233;DHT22;6179;51.748;8.728;2023-04-03T09:00:24;5.10;75.80
12233;DHT22;6179;51.748;8.728;2023-04-03T09:06:31;5.10;70.70
12233;DHT22;6179;51.748;8.728;2023-04-03T09:12:49;5.40;70.90
12233;DHT22;6179;51.748;8.728;2023-04-03T09:19:41;5.10;69.40
12233;DHT22;6179;51.748;8.728;2023-04-03T09:25:32;5.50;69.90
12233;DHT22;6179;51.748;8.728;2023-04-03T09:31:40;5.50;71.30
12233;DHT22;6179;51.748;8.728;2023-04-03T09:37:43;5.50;69.50
12233;DHT22;6179;51.748;8.728;2023-04-03T09:43:53;5.60;71.90
12233;DHT22;6179;51.748;8.728;2023-04-03T10:08:31;6.10;69.30
12233;DHT22;6179;51.748;8.728;2023-04-03T10:14:37;6.50;66.00
12233;DHT22;6179;51.748;8.728;2023-04-03T10:20:47;6.10;65.70
12233;DHT22;6179;51.748;8.728;2023-04-03T10:33:23;6.40;69.00
12233;DHT22;6179;51.748;8.728;2023-04-03T10:58:58;6.90;65.50
12233;DHT22;6179;51.748;8.728;2023-04-03T11:11:19;6.40;69.20
12233;DHT22;6179;51.748;8.728;2023-04-03T11:17:27;7.10;68.20
12233;DHT22;6179;51.748;8.728;2023-04-03T11:23:34;7.50;67.30
12233;DHT22;6179;51.748;8.728;2023-04-03T11:29:38;7.80;69.30
12233;DHT22;6179;51.748;8.728;2023-04-03T11:35:45;8.20;65.40
12233;DHT22;6179;51.748;8.728;2023-04-03T11:41:47;8.20;62.80
12233;DHT22;6179;51.748;8.728;2023-04-03T11:47:50;7.30;63.90
12233;DHT22;6179;51.748;8.728;2023-04-03T11:53:51;7.60;67.70
12233;DHT22;6179;51.748;8.728;2023-04-03T11:59:52;7.60;65.30
12233;DHT22;6179;51.748;8.728;2023-04-03T12:24:54;7.40;63.80
12233;DHT22;6179;51.748;8.728;2023-04-03T12:30:55;7.20;65.70
12233;DHT22;6179;51.748;8.728;2023-04-03T12:37:05;7.40;65.80
12233;DHT22;6179;51.748;8.728;2023-04-03T12:49:38;8.20;68.80
12233;DHT22;6179;51.748;8.728;2023-04-03T12:55:39;7.90;64.60
12233;DHT22;6179;51.748;8.728;2023-04-03T13:01:40;7.90;66.00
12233;DHT22;6179;51.748;8.728;2023-04-03T13:07:41;7.90;65.40
12233;DHT22;6179;51.748;8.728;2023-04-03T13:14:01;7.00;65.90
12233;DHT22;6179;51.748;8.728;2023-04-03T13:20:18;7.60;68.70
12233;DHT22;6179;51.748;8.728;2023-04-03T13:26:21;8.20;62.50
12233;DHT22;6179;51.748;8.728;2023-04-03T13:32:25;8.00;65.60
12233;DHT22;6179;51.748;8.728;2023-04-03T13:38:29;8.90;65.00
12233;DHT22;6179;51.748;8.728;2023-04-03T13:44:36;9.00;61.60
12233;DHT22;6179;51.748;8.728;2023-04-03T13:50:58;8.70;62.10
12233;DHT22;6179;51.748;8.728;2023-04-03T13:57:00;8.10;63.60
12233;DHT22;6179;51.748;8.728;2023-04-03T14:03:01;8.70;61.70
12233;DHT22;6179;51.748;8.728;2023-04-03T14:09:02;8.70;63.20
12233;DHT22;6179;51.748;8.728;2023-04-03T14:15:10;8.40;60.40
12233;DHT22;6179;51.748;8.728;2023-04-03T14:21:16;8.30;64.60
12233;DHT22;6179;51.748;8.728;2023-04-03T14:27:29;8.40;64.00
12233;DHT22;6179;51.748;8.728;2023-04-03T14:33:30;8.30;63.20
12233;DHT22;6179;51.748;8.728;2023-04-03T14:39:35;9.00;61.60
12233;DHT22;6179;51.748;8.728;2023-04-03T14:45:35;8.10;62.30
12233;DHT22;6179;51.748;8.728;2023-04-03T14:51:36;8.00;62.30
12233;DHT22;6179;51.748;8.728;2023-04-03T14:57:38;8.20;63.10
12233;DHT22;6179;51.748;8.728;2023-04-03T15:03:39;8.70;64.40
12233;DHT22;6179;51.748;8.728;2023-04-03T15:09:40;8.70;61.20
12233;DHT22;6179;51.748;8.728;2023-04-03T15:15:41;8.50;60.40
12233;DHT22;6179;51.748;8.728;2023-04-03T15:21:42;8.50;61.30
12233;DHT22;6179;51.748;8.728;2023-04-03T15:27:43;8.40;62.20
12233;DHT22;6179;51.748;8.728;2023-04-03T15:33:44;8.60;60.80
12233;DHT22;6179;51.748;8.728;2023-04-03T15:39:44;8.50;61.00
12233;DHT22;6179;51.748;8.728;2023-04-03T15:45:45;8.80;60.10
12233;DHT22;6179;51.748;8.728;2023-04-03T15:51:46;9.10;61.10
12233;DHT22;6179;51.748;8.728;2023-04-03T15:57:46;8.30;62.00
12233;DHT22;6179;51.748;8.728;2023-04-03T16:03:47;7.90;61.90
12233;DHT22;6179;51.748;8.728;2023-04-03T16:09:48;8.00;61.60
12233;DHT22;6179;51.748;8.728;2023-04-03T16:15:48;8.20;60.90
12233;DHT22;6179;51.748;8.728;2023-04-03T16:21:49;7.90;62.40
12233;DHT22;6179;51.748;8.728;2023-04-03T16:27:50;7.60;62.80
12233;DHT22;6179;51.748;8.728;2023-04-03T16:33:51;7.50;63.70
12233;DHT22;6179;51.748;8.728;2023-04-03T16:39:52;7.60;64.20
12233;DHT22;6179;51.748;8.728;2023-04-03T16:45:53;7.40;62.10
12233;DHT22;6179;51.748;8.728;2023-04-03T16:51:53;7.10;62.70
12233;DHT22;6179;51.748;8.728;2023-04-03T16:57:54;7.10;64.80
12233;DHT22;6179;51.748;8.728;2023-04-03T17:03:55;7.00;63.70
12233;DHT22;6179;51.748;8.728;2023-04-03T17:09:56;6.80;63.80
12233;DHT22;6179;51.748;8.728;2023-04-03T17:15:58;6.60;65.00
12233;DHT22;6179;51.748;8.728;2023-04-03T17:21:58;6.50;66.20
12233;DHT22;6179;51.748;8.728;2023-04-03T17:28:00;6.50;64.80
12233;DHT22;6179;51.748;8.728;2023-04-03T17:34:00;6.30;66.20
12233;DHT22;6179;51.748;8.728;2023-04-03T17:40:02;6.30;65.60
12233;DHT22;6179;51.748;8.728;2023-04-03T17:46:08;6.30;65.10
12233;DHT22;6179;51.748;8.728;2023-04-03T17:52:09;6.00;67.40
12233;DHT22;6179;51.748;8.728;2023-04-03T17:58:10;6.10;66.80
12233;DHT22;6179;51.748;8.728;2023-04-03T18:04:10;6.10;68.30
12233;DHT22;6179;51.748;8.728;2023-04-03T18:10:11;6.20;66.50
12233;DHT22;6179;51.748;8.728;2023-04-03T18:16:14;6.30;67.00
12233;DHT22;6179;51.748;8.728;2023-04-03T18:22:16;6.10;67.40
12233;DHT22;6179;51.748;8.728;2023-04-03T18:28:18;5.70;68.30
12233;DHT22;6179;51.748;8.728;2023-04-03T18:34:19;5.50;68.40
12233;DHT22;6179;51.748;8.728;2023-04-03T18:40:20;5.50;68.30
12233;DHT22;6179;51.748;8.728;2023-04-03T18:46:21;5.50;68.90
12233;DHT22;6179;51.748;8.728;2023-04-03T18:52:21;5.30;69.60
12233;DHT22;6179;51.748;8.728;2023-04-03T18:58:24;5.30;69.00
12233;DHT22;6179;51.748;8.728;2023-04-03T19:04:27;5.40;68.90
12233;DHT22;6179;51.748;8.728;2023-04-03T19:10:29;5.50;69.70
12233;DHT22;6179;51.748;8.728;2023-04-03T19:16:29;5.50;70.10
12233;DHT22;6179;51.748;8.728;2023-04-03T19:22:30;5.50;70.10
12233;DHT22;6179;51.748;8.728;2023-04-03T19:28:31;5.20;70.80
12233;DHT22;6179;51.748;8.728;2023-04-03T19:34:31;4.90;72.70
12233;DHT22;6179;51.748;8.728;2023-04-03T19:40:32;4.50;73.50
12233;DHT22;6179;51.748;8.728;2023-04-03T19:46:33;4.30;73.00
12233;DHT22;6179;51.748;8.728;2023-04-03T19:52:34;4.30;73.50
12233;DHT22;6179;51.748;8.728;2023-04-03T19:58:35;4.30;73.00
12233;DHT22;6179;51.748;8.728;2023-04-03T20:04:37;4.30;73.00
12233;DHT22;6179;51.748;8.728;2023-04-03T20:10:38;4.30;73.20
12233;DHT22;6179;51.748;8.728;2023-04-03T20:16:39;4.20;73.70
12233;DHT22;6179;51.748;8.728;2023-04-03T20:22:41;4.30;74.30
12233;DHT22;6179;51.748;8.728;2023-04-03T20:28:42;4.00;75.80
12233;DHT22;6179;51.748;8.728;2023-04-03T20:34:42;4.00;75.80
12233;DHT22;6179;51.748;8.728;2023-04-03T20:40:44;3.80;76.00
12233;DHT22;6179;51.748;8.728;2023-04-03T20:46:44;4.00;76.30
12233;DHT22;6179;51.748;8.728;2023-04-03T20:52:46;3.80;76.50
12233;DHT22;6179;51.748;8.728;2023-04-03T20:58:48;3.70;76.60
12233;DHT22;6179;51.748;8.728;2023-04-03T21:04:53;3.90;77.60
12233;DHT22;6179;51.748;8.728;2023-04-03T21:23:34;3.30;78.60
12233;DHT22;6179;51.748;8.728;2023-04-03T21:29:35;2.80;80.20
12233;DHT22;6179;51.748;8.728;2023-04-03T21:35:35;2.80;81.10
12233;DHT22;6179;51.748;8.728;2023-04-03T21:41:36;2.70;81.20
12233;DHT22;6179;51.748;8.728;2023-04-03T21:47:36;2.70;81.40
12233;DHT22;6179;51.748;8.728;2023-04-03T21:53:37;2.40;82.10
12233;DHT22;6179;51.748;8.728;2023-04-03T21:59:39;2.40;82.50
12233;DHT22;6179;51.748;8.728;2023-04-03T22:05:41;2.00;84.30
12233;DHT22;6179;51.748;8.728;2023-04-03T22:11:41;2.00;84.80
12233;DHT22;6179;51.748;8.728;2023-04-03T22:17:45;1.60;86.80
12233;DHT22;6179;51.748;8.728;2023-04-03T22:23:46;1.80;86.50
12233;DHT22;6179;51.748;8.728;2023-04-03T22:29:46;1.70;87.10
12233;DHT22;6179;51.748;8.728;2023-04-03T22:35:48;2.00;86.20
12233;DHT22;6179;51.748;8.728;2023-04-03T22:41:48;2.00;87.00
12233;DHT22;6179;51.748;8.728;2023-04-03T22:47:49;1.80;87.70
12233;DHT22;6179;51.748;8.728;2023-04-03T22:53:50;1.60;88.20
12233;DHT22;6179;51.748;8.728;2023-04-03T22:59:50;1.40;89.60
12233;DHT22;6179;51.748;8.728;2023-04-03T23:05:52;1.30;88.80
12233;DHT22;6179;51.748;8.728;2023-04-03T23:11:52;1.20;88.50
12233;DHT22;6179;51.748;8.728;2023-04-03T23:17:53;0.70;89.90
12233;DHT22;6179;51.748;8.728;2023-04-03T23:23:54;0.80;90.10
12233;DHT22;6179;51.748;8.728;2023-04-03T23:29:54;0.70;90.90
12233;DHT22;6179;51.748;8.728;2023-04-03T23:35:55;0.50;91.10
12233;DHT22;6179;51.748;8.728;2023-04-03T23:41:57;0.70;91.30
12233;DHT22;6179;51.748;8.728;2023-04-03T23:47:58;0.50;91.50
12233;DHT22;6179;51.748;8.728;2023-04-03T23:53:59;0.30;92.20
12233;DHT22;6179;51.748;8.728;2023-04-03T23:59:59;0.80;91.20
